Time;durP1;ratioP1;P1;durP2;ratioP2;P2;SDS_P1;SDS_P2;PMS_P1;PMS_P2;Temp;Humidity;BMP_temperature;BMP_pressure;BME280_temperature;BME280_humidity;BME280_pressure;Samples;Min_cycle;Max_cycle;Signal;HPM_P1;HPM_P2
2023/08/22 00:00:45;;;;;;;;;;;18.20;99.90;;;;;;5150668;27;20065;-40
2023/08/22 00:03:12;;;;;;;;;;;18.20;99.90;;;;;;5152068;27;19918;-41
2023/08/22 00:05:37;;;;;;;;;;;18.20;99.90;;;;;;5143860;27;19911;-40
2023/08/22 00:08:05;;;;;;;;;;;18.20;99.90;;;;;;5152971;27;19911;-45
2023/08/22 00:10:31;;;;;;;;;;;18.10;99.90;;;;;;5147987;27;19911;-41
2023/08/22 00:12:57;;;;;;;;;;;18.10;99.90;;;;;;5142391;27;19918;-40
2023/08/22 00:15:22;;;;;;;;;;;18.10;99.90;;;;;;5145887;27;19911;-40
2023/08/22 00:17:48;;;;;;;;;;;18.10;99.90;;;;;;5141040;27;19915;-41
2023/08/22 00:20:14;;;;;;;;;;;18.10;99.90;;;;;;5135265;27;20369;-41
2023/08/22 00:22:39;;;;;;;;;;;18.00;99.90;;;;;;5142682;27;19921;-40
2023/08/22 00:25:05;;;;;;;;;;;18.00;99.90;;;;;;5145040;27;20013;-40
2023/08/22 00:27:31;;;;;;;;;;;18.00;99.90;;;;;;5156241;27;20009;-41
2023/08/22 00:29:57;;;;;;;;;;;18.00;99.90;;;;;;5149713;27;20002;-41
2023/08/22 00:32:23;;;;;;;;;;;18.00;99.90;;;;;;5142657;27;19912;-41
2023/08/22 00:34:48;;;;;;;;;;;18.00;99.90;;;;;;5129846;27;19912;-41
2023/08/22 00:37:14;;;;;;;;;;;17.90;99.90;;;;;;5143305;27;19911;-39
2023/08/22 00:39:39;;;;;;;;;;;18.00;99.90;;;;;;5154198;27;19919;-41
2023/08/22 00:42:05;;;;;;;;;;;17.90;99.90;;;;;;5139608;27;19911;-40
2023/08/22 00:44:30;;;;;;;;;;;17.90;99.90;;;;;;5135563;27;19923;-41
2023/08/22 00:46:56;;;;;;;;;;;17.90;99.90;;;;;;5156696;27;19977;-41
2023/08/22 00:49:21;;;;;;;;;;;17.90;99.90;;;;;;5147289;27;19915;-41
2023/08/22 00:51:47;;;;;;;;;;;17.80;99.90;;;;;;5154795;27;20260;-41
2023/08/22 00:54:13;;;;;;;;;;;17.80;99.90;;;;;;5156424;27;19918;-40
2023/08/22 00:56:39;;;;;;;;;;;17.80;99.90;;;;;;5151381;27;20392;-44
2023/08/22 00:59:04;;;;;;;;;;;17.80;99.90;;;;;;5156507;27;19994;-40
2023/08/22 01:01:30;;;;;;;;;;;17.80;99.90;;;;;;5154252;27;19918;-42
2023/08/22 01:03:56;;;;;;;;;;;17.80;99.90;;;;;;5154793;27;19918;-41
2023/08/22 01:06:21;;;;;;;;;;;17.80;99.90;;;;;;5153939;27;19911;-40
2023/08/22 01:08:50;;;;;;;;;;;17.90;99.90;;;;;;5143799;27;19915;-41
2023/08/22 01:11:20;;;;;;;;;;;17.90;99.90;;;;;;5147314;27;19914;-40
2023/08/22 01:13:48;;;;;;;;;;;17.80;99.90;;;;;;5139833;27;20346;-41
2023/08/22 01:16:13;;;;;;;;;;;17.90;99.90;;;;;;5152535;27;19962;-40
2023/08/22 01:18:40;;;;;;;;;;;17.90;99.90;;;;;;5141008;27;19951;-42
2023/08/22 01:21:06;;;;;;;;;;;17.90;99.90;;;;;;5143330;27;20289;-40
2023/08/22 01:23:31;;;;;;;;;;;17.90;99.90;;;;;;5136538;27;19911;-41
2023/08/22 01:25:57;;;;;;;;;;;17.90;99.90;;;;;;5135253;27;19981;-42
2023/08/22 01:28:28;;;;;;;;;;;17.90;99.90;;;;;;5136409;27;19912;-40
2023/08/22 01:30:53;;;;;;;;;;;17.90;99.90;;;;;;5136704;27;19908;-41
2023/08/22 01:33:25;;;;;;;;;;;17.90;99.90;;;;;;5134754;27;20316;-41
2023/08/22 01:35:52;;;;;;;;;;;17.90;99.90;;;;;;5136694;27;19955;-41
2023/08/22 01:38:19;;;;;;;;;;;17.90;99.90;;;;;;5136249;27;20337;-40
2023/08/22 01:40:45;;;;;;;;;;;17.90;99.90;;;;;;5140556;27;19958;-40
2023/08/22 01:43:10;;;;;;;;;;;17.90;99.90;;;;;;5138149;27;19951;-44
2023/08/22 01:45:36;;;;;;;;;;;17.80;99.90;;;;;;5138598;27;19926;-41
2023/08/22 01:48:02;;;;;;;;;;;17.80;99.90;;;;;;5139856;27;19912;-40
2023/08/22 01:50:27;;;;;;;;;;;17.70;99.90;;;;;;5134681;27;19932;-40
2023/08/22 01:52:53;;;;;;;;;;;17.70;99.90;;;;;;5148091;27;19912;-40
2023/08/22 01:55:19;;;;;;;;;;;17.70;99.90;;;;;;5143467;27;19915;-43
2023/08/22 01:57:44;;;;;;;;;;;17.70;99.90;;;;;;5143789;27;19912;-41
2023/08/22 02:00:10;;;;;;;;;;;17.70;99.90;;;;;;5134987;27;20033;-42
2023/08/22 02:02:36;;;;;;;;;;;17.70;99.90;;;;;;5143751;27;19956;-41
2023/08/22 02:05:02;;;;;;;;;;;17.70;99.90;;;;;;5153346;27;20401;-41
2023/08/22 02:07:27;;;;;;;;;;;17.70;99.90;;;;;;5143423;27;19914;-42
2023/08/22 02:09:52;;;;;;;;;;;17.70;99.90;;;;;;5155260;27;19907;-43
2023/08/22 02:12:18;;;;;;;;;;;17.60;99.90;;;;;;5140656;27;19999;-40
2023/08/22 02:14:43;;;;;;;;;;;17.60;99.90;;;;;;5134324;27;19911;-44
2023/08/22 02:17:09;;;;;;;;;;;17.60;99.90;;;;;;5134326;27;20310;-40
2023/08/22 02:19:34;;;;;;;;;;;17.60;99.90;;;;;;5134237;27;19911;-40
2023/08/22 02:22:00;;;;;;;;;;;17.60;99.90;;;;;;5134447;27;19907;-41
2023/08/22 02:24:26;;;;;;;;;;;17.60;99.90;;;;;;5140681;27;20002;-42
2023/08/22 02:26:51;;;;;;;;;;;17.60;99.90;;;;;;5113713;28;19968;-41
2023/08/22 02:29:17;;;;;;;;;;;17.60;99.90;;;;;;5113602;28;20270;-44
2023/08/22 02:31:42;;;;;;;;;;;17.60;99.90;;;;;;5113515;28;19919;-41
2023/08/22 02:34:08;;;;;;;;;;;17.50;99.90;;;;;;5113567;28;19915;-42
2023/08/22 02:36:33;;;;;;;;;;;17.50;99.90;;;;;;5115411;27;19969;-42
2023/08/22 02:38:59;;;;;;;;;;;17.50;99.90;;;;;;5129967;27;19911;-41
2023/08/22 02:41:24;;;;;;;;;;;17.40;99.90;;;;;;5124927;27;19919;-41
2023/08/22 02:43:50;;;;;;;;;;;17.40;99.90;;;;;;5132451;27;20262;-40
2023/08/22 02:46:15;;;;;;;;;;;17.40;99.90;;;;;;5133017;27;19912;-41
2023/08/22 02:48:41;;;;;;;;;;;17.40;99.90;;;;;;5120463;27;19911;-42
2023/08/22 02:51:06;;;;;;;;;;;17.30;99.90;;;;;;5129100;27;19954;-41
2023/08/22 02:53:32;;;;;;;;;;;17.30;99.90;;;;;;5122325;27;19916;-40
2023/08/22 02:56:00;;;;;;;;;;;17.30;99.90;;;;;;5113331;28;19941;-40
2023/08/22 02:58:25;;;;;;;;;;;17.30;99.90;;;;;;5122610;27;19911;-41
2023/08/22 03:00:52;;;;;;;;;;;17.30;99.90;;;;;;5119031;28;19927;-40
2023/08/22 03:03:18;;;;;;;;;;;17.30;99.90;;;;;;5120582;28;19918;-43
2023/08/22 03:05:44;;;;;;;;;;;17.30;99.90;;;;;;5125793;27;19998;-40
2023/08/22 03:08:09;;;;;;;;;;;17.30;99.90;;;;;;5131821;27;19959;-40
2023/08/22 03:10:34;;;;;;;;;;;17.30;99.90;;;;;;5119921;27;19919;-43
2023/08/22 03:13:00;;;;;;;;;;;17.30;99.90;;;;;;5123895;27;19958;-40
2023/08/22 03:15:25;;;;;;;;;;;17.30;99.90;;;;;;5131829;27;20285;-42
2023/08/22 03:17:51;;;;;;;;;;;17.30;99.90;;;;;;5121753;27;19915;-40
2023/08/22 03:20:16;;;;;;;;;;;17.30;99.90;;;;;;5119757;27;20423;-41
2023/08/22 03:22:42;;;;;;;;;;;17.30;99.90;;;;;;5120927;27;19926;-42
2023/08/22 03:25:07;;;;;;;;;;;17.30;99.90;;;;;;5124115;27;19998;-41
2023/08/22 03:27:33;;;;;;;;;;;17.30;99.90;;;;;;5137638;27;19918;-40
2023/08/22 03:29:58;;;;;;;;;;;17.30;99.90;;;;;;5135985;27;19951;-42
2023/08/22 03:32:24;;;;;;;;;;;17.30;99.90;;;;;;5119960;27;19918;-41
2023/08/22 03:34:49;;;;;;;;;;;17.40;99.90;;;;;;5129249;27;20286;-41
2023/08/22 03:37:15;;;;;;;;;;;17.30;99.90;;;;;;5138497;27;19911;-43
2023/08/22 03:39:40;;;;;;;;;;;17.30;99.90;;;;;;5131934;27;19973;-41
2023/08/22 03:42:06;;;;;;;;;;;17.30;99.90;;;;;;5119593;27;20366;-41
2023/08/22 03:44:31;;;;;;;;;;;17.30;99.90;;;;;;5132846;27;19920;-41
2023/08/22 03:46:57;;;;;;;;;;;17.20;99.90;;;;;;5126874;27;19912;-40
2023/08/22 03:49:22;;;;;;;;;;;17.10;99.90;;;;;;5127603;27;20354;-41
2023/08/22 03:51:48;;;;;;;;;;;17.10;99.90;;;;;;5119693;27;19911;-42
2023/08/22 03:54:13;;;;;;;;;;;17.10;99.90;;;;;;5123335;27;20332;-41
2023/08/22 03:56:41;;;;;;;;;;;17.00;99.90;;;;;;5125868;27;20285;-40
2023/08/22 03:59:06;;;;;;;;;;;17.00;99.90;;;;;;5127533;27;20367;-42
2023/08/22 04:01:32;;;;;;;;;;;16.90;99.90;;;;;;5130279;27;19919;-41
2023/08/22 04:03:57;;;;;;;;;;;16.90;99.90;;;;;;5127523;27;20486;-40
2023/08/22 04:06:23;;;;;;;;;;;16.80;99.90;;;;;;5126592;27;19911;-43
2023/08/22 04:08:48;;;;;;;;;;;16.80;99.90;;;;;;5130903;27;20478;-41
2023/08/22 04:11:13;;;;;;;;;;;16.80;99.90;;;;;;5142753;27;19953;-41
2023/08/22 04:13:39;;;;;;;;;;;16.80;99.90;;;;;;5141482;27;19907;-40
2023/08/22 04:16:04;;;;;;;;;;;16.80;99.90;;;;;;5157787;27;19911;-40
2023/08/22 04:18:30;;;;;;;;;;;16.70;99.90;;;;;;5140381;27;20370;-40
2023/08/22 04:20:56;;;;;;;;;;;16.60;99.90;;;;;;5140357;27;19919;-41
2023/08/22 04:23:21;;;;;;;;;;;16.60;99.90;;;;;;5157467;27;19990;-42
2023/08/22 04:25:46;;;;;;;;;;;16.50;99.90;;;;;;5144791;27;20274;-41
2023/08/22 04:28:13;;;;;;;;;;;16.50;99.90;;;;;;5136520;27;19907;-40
2023/08/22 04:30:38;;;;;;;;;;;16.50;99.90;;;;;;5136174;27;19907;-41
2023/08/22 04:33:04;;;;;;;;;;;16.50;99.90;;;;;;5124149;27;19915;-40
2023/08/22 04:35:30;;;;;;;;;;;16.50;99.90;;;;;;5133048;27;19911;-40
2023/08/22 04:37:55;;;;;;;;;;;16.50;99.90;;;;;;5157055;27;19913;-40
2023/08/22 04:40:21;;;;;;;;;;;16.50;99.90;;;;;;5140668;27;20018;-40
2023/08/22 04:42:46;;;;;;;;;;;16.50;99.90;;;;;;5145516;27;19922;-41
2023/08/22 04:45:12;;;;;;;;;;;16.50;99.90;;;;;;5147533;27;19925;-40
2023/08/22 04:47:37;;;;;;;;;;;16.50;99.90;;;;;;5147059;27;19930;-41
2023/08/22 04:50:04;;;;;;;;;;;16.40;99.90;;;;;;5150196;27;19964;-40
2023/08/22 04:52:29;;;;;;;;;;;16.40;99.90;;;;;;5144367;27;19956;-41
2023/08/22 04:54:55;;;;;;;;;;;16.40;99.90;;;;;;5150859;27;19916;-40
2023/08/22 04:57:23;;;;;;;;;;;16.40;99.90;;;;;;5134641;27;19922;-41
2023/08/22 04:59:49;;;;;;;;;;;16.30;99.90;;;;;;5115359;27;20343;-44
2023/08/22 05:02:14;;;;;;;;;;;16.30;99.90;;;;;;5120501;27;20391;-41
2023/08/22 05:04:40;;;;;;;;;;;16.20;99.90;;;;;;5127222;27;19923;-41
2023/08/22 05:07:05;;;;;;;;;;;16.30;99.90;;;;;;5126441;27;19915;-39
2023/08/22 05:09:31;;;;;;;;;;;16.30;99.90;;;;;;5126099;27;19915;-40
2023/08/22 05:11:56;;;;;;;;;;;16.20;99.90;;;;;;5142020;27;19919;-40
2023/08/22 05:14:22;;;;;;;;;;;16.20;99.90;;;;;;5146184;27;19918;-44
2023/08/22 05:16:48;;;;;;;;;;;16.20;99.90;;;;;;5153964;27;20386;-41
2023/08/22 05:19:13;;;;;;;;;;;16.10;99.90;;;;;;5146681;27;20328;-42
2023/08/22 05:21:38;;;;;;;;;;;16.10;99.90;;;;;;5153860;27;20258;-41
2023/08/22 05:24:04;;;;;;;;;;;16.10;99.90;;;;;;5145532;27;20006;-42
2023/08/22 05:26:30;;;;;;;;;;;16.10;99.90;;;;;;5136001;27;19938;-40
2023/08/22 05:28:55;;;;;;;;;;;16.10;99.90;;;;;;5142506;27;20377;-40
2023/08/22 05:31:23;;;;;;;;;;;16.10;99.90;;;;;;5148817;27;19911;-41
2023/08/22 05:33:49;;;;;;;;;;;16.10;99.90;;;;;;5148103;27;20381;-42
2023/08/22 05:36:15;;;;;;;;;;;16.10;99.90;;;;;;5136042;27;19940;-42
2023/08/22 05:38:41;;;;;;;;;;;16.10;99.90;;;;;;5142720;27;20284;-39
2023/08/22 05:41:06;;;;;;;;;;;16.10;99.90;;;;;;5149490;27;19919;-41
2023/08/22 05:43:32;;;;;;;;;;;16.20;99.90;;;;;;5132695;27;19934;-41
2023/08/22 05:45:57;;;;;;;;;;;16.30;99.90;;;;;;5130553;27;19919;-41
2023/08/22 05:48:23;;;;;;;;;;;16.30;99.90;;;;;;5120315;27;19918;-44
2023/08/22 05:50:49;;;;;;;;;;;16.40;99.90;;;;;;5124186;27;20006;-39
2023/08/22 05:53:14;;;;;;;;;;;16.40;99.90;;;;;;5120201;27;19993;-41
2023/08/22 05:55:40;;;;;;;;;;;16.50;99.90;;;;;;5121295;27;20370;-41
2023/08/22 05:58:05;;;;;;;;;;;16.50;99.90;;;;;;5120788;27;19912;-40
2023/08/22 06:00:31;;;;;;;;;;;16.60;99.90;;;;;;5123737;27;20355;-43
2023/08/22 06:02:57;;;;;;;;;;;16.70;99.90;;;;;;5117062;27;19918;-39
2023/08/22 06:05:22;;;;;;;;;;;16.80;99.90;;;;;;5129002;27;19911;-41
2023/08/22 06:07:48;;;;;;;;;;;16.90;99.90;;;;;;5144919;27;20146;-40
2023/08/22 06:10:13;;;;;;;;;;;17.00;99.90;;;;;;5137848;27;20378;-39
2023/08/22 06:12:39;;;;;;;;;;;17.10;99.90;;;;;;5134245;27;19914;-43
2023/08/22 06:15:05;;;;;;;;;;;17.30;99.90;;;;;;5139551;27;19920;-41
2023/08/22 06:17:31;;;;;;;;;;;17.40;99.90;;;;;;5142663;27;19922;-40
2023/08/22 06:19:56;;;;;;;;;;;17.50;99.90;;;;;;5141491;27;19927;-40
2023/08/22 06:22:22;;;;;;;;;;;17.70;99.90;;;;;;5140219;27;19918;-41
2023/08/22 06:24:47;;;;;;;;;;;17.80;99.90;;;;;;5127505;27;19998;-40
2023/08/22 06:27:13;;;;;;;;;;;17.90;99.90;;;;;;5126886;27;19912;-44
2023/08/22 06:29:38;;;;;;;;;;;18.00;99.90;;;;;;5134166;27;19942;-41
2023/08/22 06:32:04;;;;;;;;;;;18.10;99.90;;;;;;5132996;27;20392;-42
2023/08/22 06:34:30;;;;;;;;;;;18.20;99.90;;;;;;5153284;27;19914;-41
2023/08/22 06:36:55;;;;;;;;;;;18.20;99.90;;;;;;5116696;27;19911;-41
2023/08/22 06:39:21;;;;;;;;;;;18.20;99.90;;;;;;5115949;27;19969;-43
2023/08/22 06:41:47;;;;;;;;;;;18.20;99.90;;;;;;5112526;28;19922;-44
2023/08/22 06:44:12;;;;;;;;;;;18.30;99.90;;;;;;5115307;27;20010;-41
2023/08/22 06:46:38;;;;;;;;;;;18.30;99.90;;;;;;5114242;27;20351;-42
2023/08/22 06:49:03;;;;;;;;;;;18.30;99.90;;;;;;5125358;27;19919;-40
2023/08/22 06:51:29;;;;;;;;;;;18.40;99.90;;;;;;5130787;27;19911;-44
2023/08/22 06:53:55;;;;;;;;;;;18.40;99.90;;;;;;5116273;27;19918;-39
2023/08/22 06:56:20;;;;;;;;;;;18.40;99.90;;;;;;5131476;27;19920;-42
2023/08/22 06:58:46;;;;;;;;;;;18.40;99.90;;;;;;5130570;27;19994;-40
2023/08/22 07:01:13;;;;;;;;;;;18.50;99.90;;;;;;5121065;27;19927;-40
2023/08/22 07:03:38;;;;;;;;;;;18.60;99.90;;;;;;5112842;28;19919;-42
2023/08/22 07:06:04;;;;;;;;;;;18.70;99.90;;;;;;5125069;28;19911;-40
2023/08/22 07:08:29;;;;;;;;;;;18.80;99.90;;;;;;5119160;28;20293;-41
2023/08/22 07:11:04;;;;;;;;;;;18.90;99.90;;;;;;5118226;28;20057;-40
2023/08/22 07:13:30;;;;;;;;;;;19.00;99.90;;;;;;5114258;28;19919;-41
2023/08/22 07:15:55;;;;;;;;;;;19.10;99.90;;;;;;5123283;28;20274;-43
2023/08/22 07:18:21;;;;;;;;;;;19.20;99.90;;;;;;5114846;28;19919;-41
2023/08/22 07:20:49;;;;;;;;;;;19.40;99.90;;;;;;5117560;28;20321;-42
2023/08/22 07:23:14;;;;;;;;;;;19.40;99.90;;;;;;5115245;28;20045;-41
2023/08/22 07:25:40;;;;;;;;;;;19.50;99.90;;;;;;5118705;28;20002;-42
2023/08/22 07:28:05;;;;;;;;;;;19.60;99.90;;;;;;5123476;28;19911;-41
2023/08/22 07:30:34;;;;;;;;;;;19.70;99.90;;;;;;5118201;28;19912;-43
2023/08/22 07:32:59;;;;;;;;;;;19.80;99.90;;;;;;5122400;28;19912;-42
2023/08/22 07:35:27;;;;;;;;;;;19.80;99.90;;;;;;5125449;28;20282;-45
2023/08/22 07:37:52;;;;;;;;;;;19.90;99.90;;;;;;5133409;28;19918;-41
2023/08/22 07:40:18;;;;;;;;;;;20.00;99.90;;;;;;5128472;28;20032;-40
2023/08/22 07:42:43;;;;;;;;;;;20.10;99.90;;;;;;5133252;28;19907;-42
2023/08/22 07:45:09;;;;;;;;;;;20.20;99.90;;;;;;5133123;27;20403;-41
2023/08/22 07:47:35;;;;;;;;;;;20.30;99.90;;;;;;5124724;28;19920;-41
2023/08/22 07:50:00;;;;;;;;;;;20.40;99.90;;;;;;5133334;28;20138;-40
2023/08/22 07:52:26;;;;;;;;;;;20.50;99.90;;;;;;5128448;27;19911;-40
2023/08/22 07:54:51;;;;;;;;;;;20.60;99.90;;;;;;5124799;27;19926;-41
2023/08/22 07:57:17;;;;;;;;;;;20.70;99.90;;;;;;5137147;27;19907;-40
2023/08/22 07:59:43;;;;;;;;;;;20.80;99.90;;;;;;5137038;27;19930;-42
2023/08/22 08:02:08;;;;;;;;;;;20.90;99.90;;;;;;5135277;27;19908;-41
2023/08/22 08:04:33;;;;;;;;;;;21.00;99.90;;;;;;5132498;27;20374;-41
2023/08/22 08:06:59;;;;;;;;;;;21.00;99.90;;;;;;5117868;27;19912;-40
2023/08/22 08:09:25;;;;;;;;;;;21.10;99.90;;;;;;5120491;27;20324;-41
2023/08/22 08:11:50;;;;;;;;;;;21.10;99.90;;;;;;5128148;27;20002;-41
2023/08/22 08:14:16;;;;;;;;;;;21.10;99.90;;;;;;5116239;27;19935;-42
2023/08/22 08:16:42;;;;;;;;;;;21.20;99.90;;;;;;5116199;28;19908;-41
2023/08/22 08:19:07;;;;;;;;;;;21.30;99.90;;;;;;5126506;27;19911;-40
2023/08/22 08:21:33;;;;;;;;;;;21.30;99.90;;;;;;5129631;27;20403;-42
2023/08/22 08:23:58;;;;;;;;;;;21.30;99.90;;;;;;5126531;27;19912;-41
2023/08/22 08:26:24;;;;;;;;;;;21.40;99.90;;;;;;5133636;27;19915;-42
2023/08/22 08:28:50;;;;;;;;;;;21.40;99.90;;;;;;5119534;27;20385;-43
2023/08/22 08:31:15;;;;;;;;;;;21.40;99.90;;;;;;5105373;27;20260;-43
2023/08/22 08:33:41;;;;;;;;;;;21.50;99.90;;;;;;5129524;27;19962;-40
2023/08/22 08:36:06;;;;;;;;;;;21.50;99.90;;;;;;5126472;27;19919;-41
2023/08/22 08:38:32;;;;;;;;;;;21.50;99.90;;;;;;5123305;27;20389;-40
2023/08/22 08:41:00;;;;;;;;;;;21.60;99.90;;;;;;5116589;27;19920;-42
2023/08/22 08:43:25;;;;;;;;;;;21.60;99.90;;;;;;5125234;27;19964;-41
2023/08/22 08:45:51;;;;;;;;;;;21.60;99.90;;;;;;5132217;27;20307;-42
2023/08/22 08:48:21;;;;;;;;;;;21.60;99.90;;;;;;5126187;27;19918;-42
2023/08/22 08:50:46;;;;;;;;;;;21.70;99.90;;;;;;5132527;27;20347;-42
2023/08/22 08:53:12;;;;;;;;;;;21.70;99.90;;;;;;5126174;27;20011;-40
2023/08/22 08:55:39;;;;;;;;;;;21.80;99.90;;;;;;5122951;27;19912;-42
2023/08/22 08:58:04;;;;;;;;;;;21.80;99.90;;;;;;5129254;27;19957;-42
2023/08/22 09:00:30;;;;;;;;;;;21.70;99.90;;;;;;5131042;27;19924;-42
2023/08/22 09:02:56;;;;;;;;;;;21.80;99.90;;;;;;5123084;27;19912;-41
2023/08/22 09:05:22;;;;;;;;;;;21.70;99.90;;;;;;5134175;27;19907;-42
2023/08/22 09:07:47;;;;;;;;;;;21.60;99.90;;;;;;5135719;27;20349;-40
2023/08/22 09:10:13;;;;;;;;;;;21.60;99.90;;;;;;5135792;27;20316;-40
2023/08/22 09:12:38;;;;;;;;;;;21.60;99.90;;;;;;5135678;27;19907;-41
2023/08/22 09:15:08;;;;;;;;;;;21.70;99.90;;;;;;5135828;27;20400;-42
2023/08/22 09:17:34;;;;;;;;;;;21.70;99.90;;;;;;5135853;27;19915;-41
2023/08/22 09:20:08;;;;;;;;;;;21.80;99.90;;;;;;5135421;27;19911;-42
2023/08/22 09:22:34;;;;;;;;;;;21.80;99.90;;;;;;5135445;27;19907;-43
2023/08/22 09:25:00;;;;;;;;;;;21.80;99.90;;;;;;5125177;27;19912;-43
2023/08/22 09:27:26;;;;;;;;;;;21.80;99.90;;;;;;5135142;27;20017;-40
2023/08/22 09:29:51;;;;;;;;;;;21.80;99.90;;;;;;5135492;27;19947;-43
2023/08/22 09:32:19;;;;;;;;;;;21.90;99.90;;;;;;5135611;27;19915;-40
2023/08/22 09:34:55;;;;;;;;;;;21.90;99.90;;;;;;5135337;27;19912;-41
2023/08/22 09:37:33;;;;;;;;;;;22.00;99.90;;;;;;5135348;27;19912;-42
2023/08/22 09:39:59;;;;;;;;;;;22.10;99.90;;;;;;5135337;27;19911;-41
2023/08/22 09:42:27;;;;;;;;;;;22.30;99.90;;;;;;5135182;27;19918;-44
2023/08/22 09:44:54;;;;;;;;;;;22.40;99.90;;;;;;5134821;27;19931;-41
2023/08/22 09:47:20;;;;;;;;;;;22.60;99.90;;;;;;5134974;27;19909;-42
2023/08/22 09:49:48;;;;;;;;;;;22.70;99.90;;;;;;5134973;27;19908;-41
2023/08/22 09:52:14;;;;;;;;;;;22.90;99.90;;;;;;5134989;27;19952;-43
2023/08/22 09:54:41;;;;;;;;;;;23.10;99.90;;;;;;5134926;27;19911;-41
2023/08/22 09:57:07;;;;;;;;;;;23.20;99.90;;;;;;5134883;27;19914;-41
2023/08/22 09:59:33;;;;;;;;;;;23.30;99.90;;;;;;5134641;27;20342;-41
2023/08/22 10:01:59;;;;;;;;;;;23.40;99.90;;;;;;5134871;27;20010;-42
2023/08/22 10:04:25;;;;;;;;;;;23.30;99.90;;;;;;5134705;27;19942;-42
2023/08/22 10:06:51;;;;;;;;;;;23.40;99.90;;;;;;5134579;27;20002;-43
2023/08/22 10:09:16;;;;;;;;;;;23.50;99.90;;;;;;5134652;27;19908;-41
2023/08/22 10:11:44;;;;;;;;;;;23.50;99.90;;;;;;5134527;27;20711;-41
2023/08/22 10:14:12;;;;;;;;;;;23.60;99.90;;;;;;5134517;27;19912;-42
2023/08/22 10:16:37;;;;;;;;;;;23.70;99.90;;;;;;5133459;27;20002;-43
2023/08/22 10:19:03;;;;;;;;;;;23.70;99.90;;;;;;5134525;27;20003;-42
2023/08/22 10:21:40;;;;;;;;;;;23.60;99.90;;;;;;5134495;27;19916;-43
2023/08/22 10:24:06;;;;;;;;;;;23.60;99.90;;;;;;5123211;27;19926;-42
2023/08/22 10:26:46;;;;;;;;;;;23.70;99.90;;;;;;5125366;27;19915;-43
2023/08/22 10:29:18;;;;;;;;;;;23.70;99.90;;;;;;5134111;27;19915;-42
2023/08/22 10:32:01;;;;;;;;;;;23.90;99.90;;;;;;5134290;27;19919;-42
2023/08/22 10:34:47;;;;;;;;;;;24.00;99.90;;;;;;5134245;27;19967;-40
2023/08/22 10:37:22;;;;;;;;;;;24.20;99.90;;;;;;5133840;27;20315;-42
2023/08/22 10:39:48;;;;;;;;;;;24.30;99.90;;;;;;5133923;27;19907;-43
2023/08/22 10:42:21;;;;;;;;;;;24.20;99.90;;;;;;5134089;27;19918;-41
2023/08/22 10:44:50;;;;;;;;;;;24.20;99.90;;;;;;5133686;27;19927;-42
2023/08/22 10:47:19;;;;;;;;;;;24.20;99.90;;;;;;5134076;27;19907;-42
2023/08/22 10:49:49;;;;;;;;;;;24.10;99.90;;;;;;5133843;27;20555;-41
2023/08/22 10:52:15;;;;;;;;;;;24.10;99.90;;;;;;5134072;27;19952;-42
2023/08/22 10:55:00;;;;;;;;;;;24.10;99.90;;;;;;5122147;27;19919;-41
2023/08/22 10:57:26;;;;;;;;;;;24.20;99.90;;;;;;5113362;28;19961;-43
2023/08/22 10:59:55;;;;;;;;;;;24.30;99.90;;;;;;5125086;27;20341;-43
2023/08/22 11:02:22;;;;;;;;;;;24.40;99.90;;;;;;5133716;27;19911;-42
2023/08/22 11:04:48;;;;;;;;;;;24.30;99.90;;;;;;5133740;27;20415;-42
2023/08/22 11:07:13;;;;;;;;;;;24.30;99.90;;;;;;5127777;28;19912;-41
2023/08/22 11:09:39;;;;;;;;;;;24.30;99.90;;;;;;5115162;28;19912;-44
2023/08/22 11:12:16;;;;;;;;;;;24.30;99.90;;;;;;5112900;28;19908;-42
2023/08/22 11:14:49;;;;;;;;;;;24.30;99.90;;;;;;5112983;28;19926;-41
2023/08/22 11:17:16;;;;;;;;;;;24.20;99.90;;;;;;5112984;28;19908;-42
2023/08/22 11:19:42;;;;;;;;;;;24.30;99.90;;;;;;5112901;28;19919;-45
2023/08/22 11:22:07;;;;;;;;;;;24.30;99.90;;;;;;5113149;28;19911;-40
2023/08/22 11:24:33;;;;;;;;;;;24.40;99.90;;;;;;5112988;28;19931;-45
2023/08/22 11:27:05;;;;;;;;;;;24.50;99.90;;;;;;5113857;28;19959;-41
2023/08/22 11:29:42;;;;;;;;;;;24.60;99.90;;;;;;5117134;28;19911;-42
2023/08/22 11:32:24;;;;;;;;;;;24.60;99.90;;;;;;5116989;28;20301;-41
2023/08/22 11:34:50;;;;;;;;;;;24.60;99.90;;;;;;5117103;28;19946;-42
2023/08/22 11:37:19;;;;;;;;;;;24.70;99.90;;;;;;5116965;28;19914;-41
2023/08/22 11:39:48;;;;;;;;;;;24.70;99.90;;;;;;5116933;28;20089;-41
2023/08/22 11:42:15;;;;;;;;;;;24.80;99.90;;;;;;5116825;28;19911;-42
2023/08/22 11:44:59;;;;;;;;;;;24.80;99.90;;;;;;5116556;28;19924;-42
2023/08/22 11:47:57;;;;;;;;;;;24.80;99.90;;;;;;5116813;28;20002;-41
2023/08/22 11:50:22;;;;;;;;;;;24.70;99.90;;;;;;5071189;28;19915;-42
2023/08/22 11:52:49;;;;;;;;;;;24.80;99.90;;;;;;5116725;28;19912;-42
2023/08/22 11:55:16;;;;;;;;;;;24.80;98.30;;;;;;5116779;28;19908;-42
2023/08/22 11:57:42;;;;;;;;;;;24.80;98.60;;;;;;5116548;28;19912;-43
2023/08/22 12:00:10;;;;;;;;;;;24.90;99.00;;;;;;5116539;28;19912;-43
2023/08/22 12:02:36;;;;;;;;;;;24.90;97.80;;;;;;5116406;28;19912;-43
2023/08/22 12:05:02;;;;;;;;;;;24.80;98.00;;;;;;5116660;28;19911;-43
2023/08/22 12:07:27;;;;;;;;;;;24.80;97.10;;;;;;5116487;28;19994;-43
2023/08/22 12:09:59;;;;;;;;;;;25.00;97.20;;;;;;5116377;28;19994;-44
2023/08/22 12:12:24;;;;;;;;;;;25.00;96.70;;;;;;5116319;28;19943;-42
2023/08/22 12:14:49;;;;;;;;;;;25.00;98.80;;;;;;5116378;28;19970;-41
2023/08/22 12:17:15;;;;;;;;;;;25.00;96.90;;;;;;5116192;28;19916;-46
2023/08/22 12:19:44;;;;;;;;;;;25.10;95.80;;;;;;5116108;28;19912;-42
2023/08/22 12:22:09;;;;;;;;;;;25.20;95.40;;;;;;5116365;28;19946;-43
2023/08/22 12:24:35;;;;;;;;;;;25.20;98.00;;;;;;5116066;28;19951;-41
2023/08/22 12:27:00;;;;;;;;;;;25.20;94.90;;;;;;5116182;28;19908;-42
2023/08/22 12:29:26;;;;;;;;;;;25.20;96.70;;;;;;5123717;27;20389;-42
2023/08/22 12:31:51;;;;;;;;;;;25.20;95.60;;;;;;5138556;27;20006;-41
2023/08/22 12:34:17;;;;;;;;;;;25.30;96.30;;;;;;5136331;27;19955;-43
2023/08/22 12:36:42;;;;;;;;;;;25.30;96.40;;;;;;5135607;27;20017;-41
2023/08/22 12:39:10;;;;;;;;;;;25.30;96.40;;;;;;5135533;27;19952;-42
2023/08/22 12:41:36;;;;;;;;;;;25.30;96.10;;;;;;5149248;27;19919;-41
2023/08/22 12:44:02;;;;;;;;;;;25.20;96.40;;;;;;5155514;27;19911;-43
2023/08/22 12:46:28;;;;;;;;;;;25.40;97.20;;;;;;5151089;27;20262;-40
2023/08/22 12:48:53;;;;;;;;;;;25.50;96.40;;;;;;5146924;27;20003;-43
2023/08/22 12:51:18;;;;;;;;;;;25.60;95.70;;;;;;5143555;27;20362;-41
2023/08/22 12:53:44;;;;;;;;;;;25.70;96.20;;;;;;5126122;27;19911;-42
2023/08/22 12:56:10;;;;;;;;;;;25.80;95.00;;;;;;5117758;27;19912;-42
2023/08/22 12:58:36;;;;;;;;;;;25.90;96.30;;;;;;5115237;28;20375;-41
2023/08/22 13:01:03;;;;;;;;;;;26.10;96.90;;;;;;5115293;28;19944;-43
2023/08/22 13:03:30;;;;;;;;;;;26.30;95.80;;;;;;5115390;28;19908;-41
2023/08/22 13:05:55;;;;;;;;;;;26.40;96.10;;;;;;5115400;28;19977;-42
2023/08/22 13:08:21;;;;;;;;;;;26.60;93.80;;;;;;5115268;28;20397;-42
2023/08/22 13:10:46;;;;;;;;;;;26.60;95.00;;;;;;5115142;28;19915;-41
2023/08/22 13:13:12;;;;;;;;;;;26.70;95.70;;;;;;5115136;28;19994;-42
2023/08/22 13:15:37;;;;;;;;;;;26.90;95.20;;;;;;5115005;28;19908;-43
2023/08/22 13:18:04;;;;;;;;;;;27.20;97.40;;;;;;5115087;28;19962;-42
2023/08/22 13:20:30;;;;;;;;;;;27.50;95.60;;;;;;5114970;28;20382;-42
2023/08/22 13:22:55;;;;;;;;;;;27.70;93.50;;;;;;5114894;28;19977;-40
2023/08/22 13:25:21;;;;;;;;;;;27.70;93.30;;;;;;5114941;28;20379;-43
2023/08/22 13:27:46;;;;;;;;;;;27.70;90.70;;;;;;5114759;28;19958;-42
2023/08/22 13:30:12;;;;;;;;;;;27.80;91.00;;;;;;5114965;28;19908;-41
2023/08/22 13:32:37;;;;;;;;;;;28.00;91.70;;;;;;5114606;27;20023;-44
2023/08/22 13:35:03;;;;;;;;;;;28.00;90.80;;;;;;5130635;27;20358;-45
2023/08/22 13:37:32;;;;;;;;;;;28.20;91.50;;;;;;5134906;27;19907;-43
2023/08/22 13:39:59;;;;;;;;;;;28.30;90.00;;;;;;5128054;27;19920;-40
2023/08/22 13:42:24;;;;;;;;;;;28.50;92.00;;;;;;5115520;27;19966;-42
2023/08/22 13:44:50;;;;;;;;;;;28.50;90.90;;;;;;5126380;27;19965;-42
2023/08/22 13:47:15;;;;;;;;;;;28.60;91.40;;;;;;5134715;27;20398;-43
2023/08/22 13:49:41;;;;;;;;;;;28.70;90.00;;;;;;5134765;27;19912;-41
2023/08/22 13:52:06;;;;;;;;;;;28.60;88.60;;;;;;5135292;27;19907;-41
2023/08/22 13:54:32;;;;;;;;;;;28.80;90.60;;;;;;5134837;27;20406;-41
2023/08/22 13:56:57;;;;;;;;;;;28.90;89.00;;;;;;5134872;27;19911;-41
2023/08/22 13:59:23;;;;;;;;;;;29.00;88.40;;;;;;5134683;27;19908;-42
2023/08/22 14:01:48;;;;;;;;;;;29.10;87.00;;;;;;5134688;27;20018;-41
2023/08/22 14:04:15;;;;;;;;;;;29.00;89.10;;;;;;5134884;27;19907;-42
2023/08/22 14:06:41;;;;;;;;;;;28.90;84.70;;;;;;5134657;27;19946;-46
2023/08/22 14:09:07;;;;;;;;;;;28.80;90.10;;;;;;5134681;27;20294;-42
2023/08/22 14:11:33;;;;;;;;;;;28.80;89.00;;;;;;5134512;27;20384;-42